sensor_id;sensor_type;location;lat;lon;timestamp;P1;durP1;ratioP1;P2;durP2;ratioP2
18720;SDS011;9489;50.948;3.114;2023-04-03T00:01:11;25.25;;;21.60;;
18720;SDS011;9489;50.948;3.114;2023-04-03T00:03:36;22.13;;;19.80;;
18720;SDS011;9489;50.948;3.114;2023-04-03T00:06:03;22.88;;;18.83;;
18720;SDS011;9489;50.948;3.114;2023-04-03T00:08:31;24.35;;;19.88;;
18720;SDS011;9489;50.948;3.114;2023-04-03T00:10:57;24.55;;;20.65;;
18720;SDS011;9489;50.948;3.114;2023-04-03T00:13:23;20.42;;;18.33;;
18720;SDS011;9489;50.948;3.114;2023-04-03T00:15:49;19.73;;;17.73;;
18720;SDS011;9489;50.948;3.114;2023-04-03T00:18:14;21.35;;;19.05;;
18720;SDS011;9489;50.948;3.114;2023-04-03T00:20:40;21.25;;;18.25;;
18720;SDS011;9489;50.948;3.114;2023-04-03T00:23:06;22.38;;;19.83;;
18720;SDS011;9489;50.948;3.114;2023-04-03T00:25:31;20.00;;;17.90;;
18720;SDS011;9489;50.948;3.114;2023-04-03T00:27:57;21.27;;;18.98;;
18720;SDS011;9489;50.948;3.114;2023-04-03T00:30:23;19.83;;;17.80;;
18720;SDS011;9489;50.948;3.114;2023-04-03T00:32:49;21.33;;;18.02;;
18720;SDS011;9489;50.948;3.114;2023-04-03T00:35:16;19.83;;;17.42;;
18720;SDS011;9489;50.948;3.114;2023-04-03T00:37:43;20.67;;;17.40;;
18720;SDS011;9489;50.948;3.114;2023-04-03T00:40:10;21.50;;;19.13;;
18720;SDS011;9489;50.948;3.114;2023-04-03T00:42:37;18.42;;;16.45;;
18720;SDS011;9489;50.948;3.114;2023-04-03T00:47:30;19.33;;;17.42;;
18720;SDS011;9489;50.948;3.114;2023-04-03T00:49:56;19.33;;;17.30;;
18720;SDS011;9489;50.948;3.114;2023-04-03T00:52:23;21.20;;;18.40;;
18720;SDS011;9489;50.948;3.114;2023-04-03T00:54:53;20.33;;;18.17;;
18720;SDS011;9489;50.948;3.114;2023-04-03T00:57:22;19.42;;;17.35;;
18720;SDS011;9489;50.948;3.114;2023-04-03T00:59:49;18.98;;;17.08;;
18720;SDS011;9489;50.948;3.114;2023-04-03T01:02:19;18.13;;;16.33;;
18720;SDS011;9489;50.948;3.114;2023-04-03T01:04:45;19.20;;;17.30;;
18720;SDS011;9489;50.948;3.114;2023-04-03T01:09:42;18.95;;;17.05;;
18720;SDS011;9489;50.948;3.114;2023-04-03T01:14:56;20.80;;;18.15;;
18720;SDS011;9489;50.948;3.114;2023-04-03T01:20:44;18.40;;;16.55;;
18720;SDS011;9489;50.948;3.114;2023-04-03T01:25:33;20.45;;;18.25;;
18720;SDS011;9489;50.948;3.114;2023-04-03T01:28:01;18.08;;;16.20;;
18720;SDS011;9489;50.948;3.114;2023-04-03T01:30:30;20.52;;;18.38;;
18720;SDS011;9489;50.948;3.114;2023-04-03T01:32:58;18.25;;;16.45;;
18720;SDS011;9489;50.948;3.114;2023-04-03T01:35:24;21.67;;;18.77;;
18720;SDS011;9489;50.948;3.114;2023-04-03T01:37:49;17.88;;;15.98;;
18720;SDS011;9489;50.948;3.114;2023-04-03T01:40:15;18.75;;;16.75;;
18720;SDS011;9489;50.948;3.114;2023-04-03T01:42:41;19.35;;;17.15;;
18720;SDS011;9489;50.948;3.114;2023-04-03T01:45:06;19.20;;;17.33;;
18720;SDS011;9489;50.948;3.114;2023-04-03T01:47:32;19.70;;;17.75;;
18720;SDS011;9489;50.948;3.114;2023-04-03T01:49:58;19.27;;;17.27;;
18720;SDS011;9489;50.948;3.114;2023-04-03T01:52:23;18.63;;;16.65;;
18720;SDS011;9489;50.948;3.114;2023-04-03T01:54:49;19.02;;;17.08;;
18720;SDS011;9489;50.948;3.114;2023-04-03T01:57:15;18.17;;;16.25;;
18720;SDS011;9489;50.948;3.114;2023-04-03T01:59:41;19.20;;;17.17;;
18720;SDS011;9489;50.948;3.114;2023-04-03T02:02:07;18.38;;;16.48;;
18720;SDS011;9489;50.948;3.114;2023-04-03T02:04:32;20.05;;;17.60;;
18720;SDS011;9489;50.948;3.114;2023-04-03T02:06:58;18.80;;;16.90;;
18720;SDS011;9489;50.948;3.114;2023-04-03T02:09:23;17.95;;;16.05;;
18720;SDS011;9489;50.948;3.114;2023-04-03T02:11:49;20.48;;;18.27;;
18720;SDS011;9489;50.948;3.114;2023-04-03T02:14:15;18.30;;;16.45;;
18720;SDS011;9489;50.948;3.114;2023-04-03T02:16:40;18.58;;;16.65;;
18720;SDS011;9489;50.948;3.114;2023-04-03T02:19:06;18.63;;;16.60;;
18720;SDS011;9489;50.948;3.114;2023-04-03T02:21:32;19.40;;;17.40;;
18720;SDS011;9489;50.948;3.114;2023-04-03T02:23:57;19.60;;;17.65;;
18720;SDS011;9489;50.948;3.114;2023-04-03T02:26:23;19.48;;;16.42;;
18720;SDS011;9489;50.948;3.114;2023-04-03T02:28:49;18.15;;;16.30;;
18720;SDS011;9489;50.948;3.114;2023-04-03T02:31:15;17.77;;;16.00;;
18720;SDS011;9489;50.948;3.114;2023-04-03T02:33:41;18.35;;;16.63;;
18720;SDS011;9489;50.948;3.114;2023-04-03T02:36:07;18.92;;;17.02;;
18720;SDS011;9489;50.948;3.114;2023-04-03T02:38:33;18.75;;;16.85;;
18720;SDS011;9489;50.948;3.114;2023-04-03T02:41:03;19.38;;;17.52;;
18720;SDS011;9489;50.948;3.114;2023-04-03T02:43:31;18.95;;;17.05;;
18720;SDS011;9489;50.948;3.114;2023-04-03T02:45:56;18.75;;;16.80;;
18720;SDS011;9489;50.948;3.114;2023-04-03T02:48:22;20.75;;;18.23;;
18720;SDS011;9489;50.948;3.114;2023-04-03T02:50:49;18.88;;;16.90;;
18720;SDS011;9489;50.948;3.114;2023-04-03T02:53:15;20.40;;;17.90;;
18720;SDS011;9489;50.948;3.114;2023-04-03T02:55:40;19.25;;;17.30;;
18720;SDS011;9489;50.948;3.114;2023-04-03T02:58:06;22.33;;;18.63;;
18720;SDS011;9489;50.948;3.114;2023-04-03T03:00:32;20.27;;;18.17;;
18720;SDS011;9489;50.948;3.114;2023-04-03T03:02:58;18.80;;;16.30;;
18720;SDS011;9489;50.948;3.114;2023-04-03T03:05:24;18.80;;;16.88;;
18720;SDS011;9489;50.948;3.114;2023-04-03T03:07:50;22.52;;;18.85;;
18720;SDS011;9489;50.948;3.114;2023-04-03T03:10:16;21.02;;;18.65;;
18720;SDS011;9489;50.948;3.114;2023-04-03T03:12:41;21.40;;;18.67;;
18720;SDS011;9489;50.948;3.114;2023-04-03T03:15:07;20.58;;;18.45;;
18720;SDS011;9489;50.948;3.114;2023-04-03T03:17:33;21.92;;;17.45;;
18720;SDS011;9489;50.948;3.114;2023-04-03T03:19:58;20.23;;;18.17;;
18720;SDS011;9489;50.948;3.114;2023-04-03T03:22:25;18.73;;;16.92;;
18720;SDS011;9489;50.948;3.114;2023-04-03T03:24:51;19.13;;;17.20;;
18720;SDS011;9489;50.948;3.114;2023-04-03T03:27:17;20.42;;;18.17;;
18720;SDS011;9489;50.948;3.114;2023-04-03T03:29:42;20.58;;;18.52;;
18720;SDS011;9489;50.948;3.114;2023-04-03T03:32:08;20.02;;;17.92;;
18720;SDS011;9489;50.948;3.114;2023-04-03T03:34:33;21.05;;;18.90;;
18720;SDS011;9489;50.948;3.114;2023-04-03T03:36:59;19.88;;;17.77;;
18720;SDS011;9489;50.948;3.114;2023-04-03T03:39:25;18.33;;;16.48;;
18720;SDS011;9489;50.948;3.114;2023-04-03T03:41:51;19.48;;;17.27;;
18720;SDS011;9489;50.948;3.114;2023-04-03T03:44:18;18.75;;;15.88;;
18720;SDS011;9489;50.948;3.114;2023-04-03T03:46:44;17.77;;;16.05;;
18720;SDS011;9489;50.948;3.114;2023-04-03T03:49:10;19.77;;;17.25;;
18720;SDS011;9489;50.948;3.114;2023-04-03T03:51:36;21.52;;;19.27;;
18720;SDS011;9489;50.948;3.114;2023-04-03T03:54:02;18.50;;;16.80;;
18720;SDS011;9489;50.948;3.114;2023-04-03T03:56:28;18.95;;;16.95;;
18720;SDS011;9489;50.948;3.114;2023-04-03T03:58:54;17.65;;;15.77;;
18720;SDS011;9489;50.948;3.114;2023-04-03T04:01:21;19.02;;;17.02;;
18720;SDS011;9489;50.948;3.114;2023-04-03T04:03:47;19.48;;;16.13;;
18720;SDS011;9489;50.948;3.114;2023-04-03T04:06:13;17.67;;;15.98;;
18720;SDS011;9489;50.948;3.114;2023-04-03T04:08:38;16.48;;;14.55;;
18720;SDS011;9489;50.948;3.114;2023-04-03T04:11:04;18.50;;;16.58;;
18720;SDS011;9489;50.948;3.114;2023-04-03T04:13:30;16.92;;;15.23;;
18720;SDS011;9489;50.948;3.114;2023-04-03T04:15:56;19.30;;;17.30;;
18720;SDS011;9489;50.948;3.114;2023-04-03T04:18:21;17.63;;;16.05;;
18720;SDS011;9489;50.948;3.114;2023-04-03T04:20:47;17.65;;;15.88;;
18720;SDS011;9489;50.948;3.114;2023-04-03T04:23:13;19.25;;;16.67;;
18720;SDS011;9489;50.948;3.114;2023-04-03T04:25:39;20.42;;;18.50;;
18720;SDS011;9489;50.948;3.114;2023-04-03T04:28:05;18.90;;;16.90;;
18720;SDS011;9489;50.948;3.114;2023-04-03T04:30:31;18.05;;;16.38;;
18720;SDS011;9489;50.948;3.114;2023-04-03T04:32:56;19.55;;;16.40;;
18720;SDS011;9489;50.948;3.114;2023-04-03T04:35:22;19.23;;;17.25;;
18720;SDS011;9489;50.948;3.114;2023-04-03T04:37:47;18.02;;;16.33;;
18720;SDS011;9489;50.948;3.114;2023-04-03T04:40:13;19.23;;;17.17;;
18720;SDS011;9489;50.948;3.114;2023-04-03T04:42:39;18.45;;;16.63;;
18720;SDS011;9489;50.948;3.114;2023-04-03T04:45:05;18.67;;;16.58;;
18720;SDS011;9489;50.948;3.114;2023-04-03T04:47:31;18.55;;;16.35;;
18720;SDS011;9489;50.948;3.114;2023-04-03T04:49:56;18.17;;;16.17;;
18720;SDS011;9489;50.948;3.114;2023-04-03T04:52:22;18.60;;;16.83;;
18720;SDS011;9489;50.948;3.114;2023-04-03T04:54:47;18.95;;;16.67;;
18720;SDS011;9489;50.948;3.114;2023-04-03T04:57:13;21.15;;;17.77;;
18720;SDS011;9489;50.948;3.114;2023-04-03T04:59:38;21.15;;;18.30;;
18720;SDS011;9489;50.948;3.114;2023-04-03T05:02:04;20.88;;;16.23;;
18720;SDS011;9489;50.948;3.114;2023-04-03T05:04:29;19.70;;;17.80;;
18720;SDS011;9489;50.948;3.114;2023-04-03T05:06:55;19.80;;;17.73;;
18720;SDS011;9489;50.948;3.114;2023-04-03T05:09:21;20.05;;;18.20;;
18720;SDS011;9489;50.948;3.114;2023-04-03T05:11:46;19.38;;;17.38;;
18720;SDS011;9489;50.948;3.114;2023-04-03T05:14:12;19.35;;;17.55;;
18720;SDS011;9489;50.948;3.114;2023-04-03T05:16:37;20.02;;;17.92;;
18720;SDS011;9489;50.948;3.114;2023-04-03T05:19:03;19.00;;;17.23;;
18720;SDS011;9489;50.948;3.114;2023-04-03T05:21:29;19.63;;;17.70;;
18720;SDS011;9489;50.948;3.114;2023-04-03T05:23:57;18.48;;;16.67;;
18720;SDS011;9489;50.948;3.114;2023-04-03T05:26:27;19.58;;;17.65;;
18720;SDS011;9489;50.948;3.114;2023-04-03T05:28:54;18.52;;;16.65;;
18720;SDS011;9489;50.948;3.114;2023-04-03T05:31:20;15.88;;;14.57;;
18720;SDS011;9489;50.948;3.114;2023-04-03T05:33:46;16.63;;;15.13;;
18720;SDS011;9489;50.948;3.114;2023-04-03T05:36:12;18.23;;;16.60;;
18720;SDS011;9489;50.948;3.114;2023-04-03T05:38:38;17.08;;;15.55;;
18720;SDS011;9489;50.948;3.114;2023-04-03T05:41:04;14.73;;;13.52;;
18720;SDS011;9489;50.948;3.114;2023-04-03T05:43:30;15.07;;;13.52;;
18720;SDS011;9489;50.948;3.114;2023-04-03T05:45:56;14.02;;;12.73;;
18720;SDS011;9489;50.948;3.114;2023-04-03T05:48:21;13.95;;;12.52;;
18720;SDS011;9489;50.948;3.114;2023-04-03T05:50:47;13.60;;;12.40;;
18720;SDS011;9489;50.948;3.114;2023-04-03T05:53:15;13.13;;;12.02;;
18720;SDS011;9489;50.948;3.114;2023-04-03T05:55:47;13.88;;;12.20;;
18720;SDS011;9489;50.948;3.114;2023-04-03T05:58:13;13.43;;;12.18;;
18720;SDS011;9489;50.948;3.114;2023-04-03T06:00:38;13.52;;;12.25;;
18720;SDS011;9489;50.948;3.114;2023-04-03T06:03:04;13.20;;;11.98;;
18720;SDS011;9489;50.948;3.114;2023-04-03T06:05:31;13.68;;;12.38;;
18720;SDS011;9489;50.948;3.114;2023-04-03T06:07:56;14.05;;;12.60;;
18720;SDS011;9489;50.948;3.114;2023-04-03T06:10:22;13.07;;;11.77;;
18720;SDS011;9489;50.948;3.114;2023-04-03T06:12:48;12.05;;;10.73;;
18720;SDS011;9489;50.948;3.114;2023-04-03T06:15:13;10.48;;;9.38;;
18720;SDS011;9489;50.948;3.114;2023-04-03T06:17:39;9.57;;;8.68;;
18720;SDS011;9489;50.948;3.114;2023-04-03T06:20:05;8.90;;;8.00;;
18720;SDS011;9489;50.948;3.114;2023-04-03T06:22:31;8.73;;;7.78;;
18720;SDS011;9489;50.948;3.114;2023-04-03T06:24:57;8.50;;;7.80;;
18720;SDS011;9489;50.948;3.114;2023-04-03T06:27:22;9.27;;;8.32;;
18720;SDS011;9489;50.948;3.114;2023-04-03T06:29:48;7.82;;;7.22;;
18720;SDS011;9489;50.948;3.114;2023-04-03T06:32:14;8.18;;;7.43;;
18720;SDS011;9489;50.948;3.114;2023-04-03T06:34:40;8.57;;;7.20;;
18720;SDS011;9489;50.948;3.114;2023-04-03T06:37:06;8.30;;;7.50;;
18720;SDS011;9489;50.948;3.114;2023-04-03T06:39:42;8.90;;;7.55;;
18720;SDS011;9489;50.948;3.114;2023-04-03T06:42:08;7.57;;;6.90;;
18720;SDS011;9489;50.948;3.114;2023-04-03T06:44:33;7.38;;;6.75;;
18720;SDS011;9489;50.948;3.114;2023-04-03T06:46:59;8.48;;;7.53;;
18720;SDS011;9489;50.948;3.114;2023-04-03T06:49:25;9.50;;;7.30;;
18720;SDS011;9489;50.948;3.114;2023-04-03T06:51:51;8.48;;;6.28;;
18720;SDS011;9489;50.948;3.114;2023-04-03T06:54:17;6.90;;;6.28;;
18720;SDS011;9489;50.948;3.114;2023-04-03T06:56:43;7.18;;;6.13;;
18720;SDS011;9489;50.948;3.114;2023-04-03T06:59:09;9.20;;;6.90;;
18720;SDS011;9489;50.948;3.114;2023-04-03T07:01:37;6.97;;;6.22;;
18720;SDS011;9489;50.948;3.114;2023-04-03T07:04:03;6.85;;;6.18;;
18720;SDS011;9489;50.948;3.114;2023-04-03T07:06:29;7.18;;;6.47;;
18720;SDS011;9489;50.948;3.114;2023-04-03T07:08:56;6.55;;;5.95;;
18720;SDS011;9489;50.948;3.114;2023-04-03T07:11:21;6.70;;;6.20;;
18720;SDS011;9489;50.948;3.114;2023-04-03T07:13:47;6.47;;;5.53;;
18720;SDS011;9489;50.948;3.114;2023-04-03T07:16:13;7.68;;;6.90;;
18720;SDS011;9489;50.948;3.114;2023-04-03T07:18:38;6.30;;;5.47;;
18720;SDS011;9489;50.948;3.114;2023-04-03T07:21:04;5.82;;;5.32;;
18720;SDS011;9489;50.948;3.114;2023-04-03T07:23:30;6.65;;;6.00;;
18720;SDS011;9489;50.948;3.114;2023-04-03T07:25:55;6.85;;;5.68;;
18720;SDS011;9489;50.948;3.114;2023-04-03T07:28:21;5.97;;;5.47;;
18720;SDS011;9489;50.948;3.114;2023-04-03T07:30:51;5.75;;;5.03;;
18720;SDS011;9489;50.948;3.114;2023-04-03T07:33:18;5.72;;;5.15;;
18720;SDS011;9489;50.948;3.114;2023-04-03T07:35:46;5.65;;;5.07;;
18720;SDS011;9489;50.948;3.114;2023-04-03T07:38:12;5.78;;;4.65;;
18720;SDS011;9489;50.948;3.114;2023-04-03T07:40:38;5.55;;;4.63;;
18720;SDS011;9489;50.948;3.114;2023-04-03T07:43:04;4.82;;;4.43;;
18720;SDS011;9489;50.948;3.114;2023-04-03T07:45:30;5.03;;;4.60;;
18720;SDS011;9489;50.948;3.114;2023-04-03T07:47:56;5.53;;;5.03;;
18720;SDS011;9489;50.948;3.114;2023-04-03T07:50:21;5.55;;;4.88;;
18720;SDS011;9489;50.948;3.114;2023-04-03T07:52:47;4.82;;;4.32;;
18720;SDS011;9489;50.948;3.114;2023-04-03T07:55:13;5.30;;;4.40;;
18720;SDS011;9489;50.948;3.114;2023-04-03T07:57:39;4.78;;;4.30;;
18720;SDS011;9489;50.948;3.114;2023-04-03T08:00:06;5.93;;;5.30;;
18720;SDS011;9489;50.948;3.114;2023-04-03T08:02:32;6.32;;;4.38;;
18720;SDS011;9489;50.948;3.114;2023-04-03T08:04:58;4.97;;;3.65;;
18720;SDS011;9489;50.948;3.114;2023-04-03T08:07:24;4.13;;;3.20;;
18720;SDS011;9489;50.948;3.114;2023-04-03T08:09:50;4.82;;;3.67;;
18720;SDS011;9489;50.948;3.114;2023-04-03T08:12:16;4.30;;;3.88;;
18720;SDS011;9489;50.948;3.114;2023-04-03T08:14:42;4.20;;;3.83;;
18720;SDS011;9489;50.948;3.114;2023-04-03T08:17:08;3.78;;;3.47;;
18720;SDS011;9489;50.948;3.114;2023-04-03T08:19:36;4.35;;;3.95;;
18720;SDS011;9489;50.948;3.114;2023-04-03T08:22:02;3.83;;;3.53;;
18720;SDS011;9489;50.948;3.114;2023-04-03T08:24:29;3.92;;;3.60;;
18720;SDS011;9489;50.948;3.114;2023-04-03T08:26:56;4.72;;;4.00;;
18720;SDS011;9489;50.948;3.114;2023-04-03T08:29:21;3.65;;;3.22;;
18720;SDS011;9489;50.948;3.114;2023-04-03T08:31:47;3.70;;;3.35;;
18720;SDS011;9489;50.948;3.114;2023-04-03T08:34:14;4.07;;;3.30;;
18720;SDS011;9489;50.948;3.114;2023-04-03T08:36:40;3.42;;;3.13;;
18720;SDS011;9489;50.948;3.114;2023-04-03T08:39:06;4.25;;;3.80;;
18720;SDS011;9489;50.948;3.114;2023-04-03T08:49:42;5.80;;;5.30;;
18720;SDS011;9489;50.948;3.114;2023-04-03T08:52:20;6.05;;;5.45;;
18720;SDS011;9489;50.948;3.114;2023-04-03T08:54:59;6.15;;;5.57;;
18720;SDS011;9489;50.948;3.114;2023-04-03T09:00:02;6.70;;;6.10;;
18720;SDS011;9489;50.948;3.114;2023-04-03T09:02:43;7.75;;;6.93;;
18720;SDS011;9489;50.948;3.114;2023-04-03T09:05:18;7.95;;;7.30;;
18720;SDS011;9489;50.948;3.114;2023-04-03T09:08:05;8.50;;;7.80;;
18720;SDS011;9489;50.948;3.114;2023-04-03T09:10:39;7.57;;;6.90;;
18720;SDS011;9489;50.948;3.114;2023-04-03T09:13:08;10.60;;;8.15;;
18720;SDS011;9489;50.948;3.114;2023-04-03T09:15:43;7.95;;;7.15;;
18720;SDS011;9489;50.948;3.114;2023-04-03T09:23:43;7.47;;;6.78;;
18720;SDS011;9489;50.948;3.114;2023-04-03T09:29:06;7.57;;;6.95;;
18720;SDS011;9489;50.948;3.114;2023-04-03T09:31:39;7.47;;;6.32;;
18720;SDS011;9489;50.948;3.114;2023-04-03T09:36:44;6.90;;;6.20;;
18720;SDS011;9489;50.948;3.114;2023-04-03T09:39:18;7.68;;;6.80;;
18720;SDS011;9489;50.948;3.114;2023-04-03T09:44:29;8.52;;;7.38;;
18720;SDS011;9489;50.948;3.114;2023-04-03T09:49:49;7.82;;;7.05;;
18720;SDS011;9489;50.948;3.114;2023-04-03T09:52:19;7.22;;;6.63;;
18720;SDS011;9489;50.948;3.114;2023-04-03T09:54:48;7.63;;;6.80;;
18720;SDS011;9489;50.948;3.114;2023-04-03T09:57:14;6.70;;;6.15;;
18720;SDS011;9489;50.948;3.114;2023-04-03T09:59:58;6.00;;;5.45;;
18720;SDS011;9489;50.948;3.114;2023-04-03T10:04:57;6.72;;;6.00;;
18720;SDS011;9489;50.948;3.114;2023-04-03T10:07:30;6.93;;;6.22;;
18720;SDS011;9489;50.948;3.114;2023-04-03T10:10:14;6.55;;;5.95;;
18720;SDS011;9489;50.948;3.114;2023-04-03T10:12:41;6.80;;;6.20;;
18720;SDS011;9489;50.948;3.114;2023-04-03T10:15:10;6.78;;;6.28;;
18720;SDS011;9489;50.948;3.114;2023-04-03T10:17:50;5.68;;;5.20;;
18720;SDS011;9489;50.948;3.114;2023-04-03T10:20:40;6.68;;;4.82;;
18720;SDS011;9489;50.948;3.114;2023-04-03T10:28:55;4.93;;;4.53;;
18720;SDS011;9489;50.948;3.114;2023-04-03T10:31:25;4.50;;;4.10;;
18720;SDS011;9489;50.948;3.114;2023-04-03T10:36:46;4.13;;;3.72;;
18720;SDS011;9489;50.948;3.114;2023-04-03T10:44:54;6.70;;;5.53;;
18720;SDS011;9489;50.948;3.114;2023-04-03T10:47:45;9.35;;;5.45;;
18720;SDS011;9489;50.948;3.114;2023-04-03T10:53:36;5.65;;;5.00;;
18720;SDS011;9489;50.948;3.114;2023-04-03T10:56:30;6.28;;;5.13;;
18720;SDS011;9489;50.948;3.114;2023-04-03T11:01:56;5.60;;;5.00;;
18720;SDS011;9489;50.948;3.114;2023-04-03T11:04:27;5.38;;;4.85;;
18720;SDS011;9489;50.948;3.114;2023-04-03T11:07:01;4.88;;;4.07;;
18720;SDS011;9489;50.948;3.114;2023-04-03T11:09:34;4.85;;;4.45;;
18720;SDS011;9489;50.948;3.114;2023-04-03T11:14:43;5.80;;;4.05;;
18720;SDS011;9489;50.948;3.114;2023-04-03T11:19:43;5.05;;;3.90;;
18720;SDS011;9489;50.948;3.114;2023-04-03T11:25:19;4.82;;;3.65;;
18720;SDS011;9489;50.948;3.114;2023-04-03T11:27:49;4.18;;;3.28;;
18720;SDS011;9489;50.948;3.114;2023-04-03T11:30:20;3.25;;;3.03;;
18720;SDS011;9489;50.948;3.114;2023-04-03T11:35:33;2.90;;;2.60;;
18720;SDS011;9489;50.948;3.114;2023-04-03T11:38:00;3.42;;;2.78;;
18720;SDS011;9489;50.948;3.114;2023-04-03T11:40:32;4.22;;;2.72;;
18720;SDS011;9489;50.948;3.114;2023-04-03T11:50:39;3.58;;;2.92;;
18720;SDS011;9489;50.948;3.114;2023-04-03T12:05:51;4.05;;;3.13;;
18720;SDS011;9489;50.948;3.114;2023-04-03T12:08:26;2.97;;;2.67;;
18720;SDS011;9489;50.948;3.114;2023-04-03T12:19:03;3.90;;;3.50;;
18720;SDS011;9489;50.948;3.114;2023-04-03T12:24:33;4.47;;;3.08;;
18720;SDS011;9489;50.948;3.114;2023-04-03T12:27:07;3.35;;;2.63;;
18720;SDS011;9489;50.948;3.114;2023-04-03T12:45:50;2.20;;;2.00;;
18720;SDS011;9489;50.948;3.114;2023-04-03T12:48:33;3.15;;;2.40;;
18720;SDS011;9489;50.948;3.114;2023-04-03T12:51:14;3.40;;;2.63;;
18720;SDS011;9489;50.948;3.114;2023-04-03T12:53:47;2.80;;;2.30;;
18720;SDS011;9489;50.948;3.114;2023-04-03T12:58:53;3.95;;;2.20;;
18720;SDS011;9489;50.948;3.114;2023-04-03T13:01:24;3.42;;;2.40;;
18720;SDS011;9489;50.948;3.114;2023-04-03T13:03:57;2.70;;;2.20;;
18720;SDS011;9489;50.948;3.114;2023-04-03T13:06:27;2.92;;;2.05;;
18720;SDS011;9489;50.948;3.114;2023-04-03T13:08:57;3.13;;;2.13;;
18720;SDS011;9489;50.948;3.114;2023-04-03T13:11:25;2.95;;;2.10;;
18720;SDS011;9489;50.948;3.114;2023-04-03T13:13:58;2.47;;;1.90;;
18720;SDS011;9489;50.948;3.114;2023-04-03T13:16:30;3.20;;;1.95;;
18720;SDS011;9489;50.948;3.114;2023-04-03T13:18:57;2.78;;;1.90;;
18720;SDS011;9489;50.948;3.114;2023-04-03T13:21:26;4.88;;;1.70;;
18720;SDS011;9489;50.948;3.114;2023-04-03T13:23:57;4.15;;;2.30;;
18720;SDS011;9489;50.948;3.114;2023-04-03T13:26:26;2.25;;;2.05;;
18720;SDS011;9489;50.948;3.114;2023-04-03T13:28:59;2.17;;;1.98;;
18720;SDS011;9489;50.948;3.114;2023-04-03T13:31:29;2.67;;;2.10;;
18720;SDS011;9489;50.948;3.114;2023-04-03T13:34:09;3.22;;;2.30;;
18720;SDS011;9489;50.948;3.114;2023-04-03T13:36:54;3.45;;;2.45;;
18720;SDS011;9489;50.948;3.114;2023-04-03T13:39:27;3.25;;;2.38;;
18720;SDS011;9489;50.948;3.114;2023-04-03T13:41:58;3.30;;;2.50;;
18720;SDS011;9489;50.948;3.114;2023-04-03T13:52:59;4.05;;;2.85;;
18720;SDS011;9489;50.948;3.114;2023-04-03T13:55:34;3.80;;;2.75;;
18720;SDS011;9489;50.948;3.114;2023-04-03T14:03:28;3.25;;;2.60;;
18720;SDS011;9489;50.948;3.114;2023-04-03T14:06:05;2.95;;;2.50;;
18720;SDS011;9489;50.948;3.114;2023-04-03T14:08:32;3.25;;;2.60;;
18720;SDS011;9489;50.948;3.114;2023-04-03T14:10:57;3.63;;;2.95;;
18720;SDS011;9489;50.948;3.114;2023-04-03T14:13:23;4.50;;;2.92;;
18720;SDS011;9489;50.948;3.114;2023-04-03T14:15:49;4.82;;;2.50;;
18720;SDS011;9489;50.948;3.114;2023-04-03T14:18:16;4.72;;;2.67;;
18720;SDS011;9489;50.948;3.114;2023-04-03T14:20:44;3.03;;;2.42;;
18720;SDS011;9489;50.948;3.114;2023-04-03T14:23:09;2.72;;;2.30;;
18720;SDS011;9489;50.948;3.114;2023-04-03T14:25:35;3.88;;;2.67;;
18720;SDS011;9489;50.948;3.114;2023-04-03T14:28:07;3.08;;;2.83;;
18720;SDS011;9489;50.948;3.114;2023-04-03T14:30:43;2.72;;;2.53;;
18720;SDS011;9489;50.948;3.114;2023-04-03T14:33:13;3.78;;;2.60;;
18720;SDS011;9489;50.948;3.114;2023-04-03T14:35:41;3.25;;;2.25;;
18720;SDS011;9489;50.948;3.114;2023-04-03T14:38:24;2.35;;;2.15;;
18720;SDS011;9489;50.948;3.114;2023-04-03T14:40:51;2.30;;;2.03;;
18720;SDS011;9489;50.948;3.114;2023-04-03T14:43:18;4.10;;;2.50;;
18720;SDS011;9489;50.948;3.114;2023-04-03T14:45:45;3.63;;;2.53;;
18720;SDS011;9489;50.948;3.114;2023-04-03T14:48:19;3.47;;;2.30;;
18720;SDS011;9489;50.948;3.114;2023-04-03T14:50:47;4.88;;;2.85;;
18720;SDS011;9489;50.948;3.114;2023-04-03T14:53:13;4.32;;;2.50;;
18720;SDS011;9489;50.948;3.114;2023-04-03T14:55:40;4.72;;;2.80;;
18720;SDS011;9489;50.948;3.114;2023-04-03T14:58:11;2.60;;;2.40;;
18720;SDS011;9489;50.948;3.114;2023-04-03T15:00:39;4.55;;;2.08;;
18720;SDS011;9489;50.948;3.114;2023-04-03T15:03:05;4.13;;;2.15;;
18720;SDS011;9489;50.948;3.114;2023-04-03T15:05:30;4.00;;;2.92;;
18720;SDS011;9489;50.948;3.114;2023-04-03T15:07:56;5.45;;;2.65;;
18720;SDS011;9489;50.948;3.114;2023-04-03T15:10:26;2.75;;;1.90;;
18720;SDS011;9489;50.948;3.114;2023-04-03T15:12:53;3.42;;;2.28;;
18720;SDS011;9489;50.948;3.114;2023-04-03T15:15:20;2.60;;;2.40;;
18720;SDS011;9489;50.948;3.114;2023-04-03T15:17:47;4.20;;;2.40;;
18720;SDS011;9489;50.948;3.114;2023-04-03T15:20:19;2.40;;;2.10;;
18720;SDS011;9489;50.948;3.114;2023-04-03T15:22:47;4.93;;;2.58;;
18720;SDS011;9489;50.948;3.114;2023-04-03T15:25:13;4.60;;;2.58;;
18720;SDS011;9489;50.948;3.114;2023-04-03T15:27:39;3.20;;;2.25;;
18720;SDS011;9489;50.948;3.114;2023-04-03T15:30:06;3.53;;;2.22;;
18720;SDS011;9489;50.948;3.114;2023-04-03T15:32:36;4.18;;;2.70;;
18720;SDS011;9489;50.948;3.114;2023-04-03T15:35:01;3.83;;;1.98;;
18720;SDS011;9489;50.948;3.114;2023-04-03T15:37:27;4.03;;;2.45;;
18720;SDS011;9489;50.948;3.114;2023-04-03T15:39:53;2.53;;;1.98;;
18720;SDS011;9489;50.948;3.114;2023-04-03T15:42:18;2.58;;;1.88;;
18720;SDS011;9489;50.948;3.114;2023-04-03T15:44:44;2.33;;;2.10;;
18720;SDS011;9489;50.948;3.114;2023-04-03T15:47:10;2.40;;;2.20;;
18720;SDS011;9489;50.948;3.114;2023-04-03T15:49:35;3.75;;;2.67;;
18720;SDS011;9489;50.948;3.114;2023-04-03T15:52:01;3.00;;;2.17;;
18720;SDS011;9489;50.948;3.114;2023-04-03T15:54:27;3.53;;;2.30;;
18720;SDS011;9489;50.948;3.114;2023-04-03T15:56:54;3.90;;;2.20;;
18720;SDS011;9489;50.948;3.114;2023-04-03T15:59:20;3.53;;;2.25;;
18720;SDS011;9489;50.948;3.114;2023-04-03T16:01:46;3.42;;;1.75;;
18720;SDS011;9489;50.948;3.114;2023-04-03T16:04:12;2.92;;;2.50;;
18720;SDS011;9489;50.948;3.114;2023-04-03T16:06:38;2.08;;;1.88;;
18720;SDS011;9489;50.948;3.114;2023-04-03T16:09:04;2.42;;;1.90;;
18720;SDS011;9489;50.948;3.114;2023-04-03T16:11:30;2.72;;;2.03;;
18720;SDS011;9489;50.948;3.114;2023-04-03T16:13:56;2.35;;;2.15;;
18720;SDS011;9489;50.948;3.114;2023-04-03T16:16:22;2.80;;;2.22;;
18720;SDS011;9489;50.948;3.114;2023-04-03T16:18:48;3.83;;;2.28;;
18720;SDS011;9489;50.948;3.114;2023-04-03T16:21:14;4.45;;;2.10;;
18720;SDS011;9489;50.948;3.114;2023-04-03T16:23:41;4.40;;;2.60;;
18720;SDS011;9489;50.948;3.114;2023-04-03T16:26:08;3.50;;;2.70;;
18720;SDS011;9489;50.948;3.114;2023-04-03T16:28:35;2.75;;;2.00;;
18720;SDS011;9489;50.948;3.114;2023-04-03T16:31:00;3.70;;;2.60;;
18720;SDS011;9489;50.948;3.114;2023-04-03T16:33:27;2.72;;;2.28;;
18720;SDS011;9489;50.948;3.114;2023-04-03T16:35:53;2.55;;;2.35;;
18720;SDS011;9489;50.948;3.114;2023-04-03T16:38:18;3.22;;;2.30;;
18720;SDS011;9489;50.948;3.114;2023-04-03T16:40:45;3.42;;;2.47;;
18720;SDS011;9489;50.948;3.114;2023-04-03T16:43:10;2.63;;;2.22;;
18720;SDS011;9489;50.948;3.114;2023-04-03T16:45:36;3.55;;;2.35;;
18720;SDS011;9489;50.948;3.114;2023-04-03T16:48:02;2.20;;;2.10;;
18720;SDS011;9489;50.948;3.114;2023-04-03T16:50:28;4.07;;;2.60;;
18720;SDS011;9489;50.948;3.114;2023-04-03T16:52:54;2.80;;;2.22;;
18720;SDS011;9489;50.948;3.114;2023-04-03T16:55:19;2.20;;;2.10;;
18720;SDS011;9489;50.948;3.114;2023-04-03T16:57:45;2.83;;;2.00;;
18720;SDS011;9489;50.948;3.114;2023-04-03T17:00:11;2.47;;;1.98;;
18720;SDS011;9489;50.948;3.114;2023-04-03T17:02:38;2.08;;;1.90;;
18720;SDS011;9489;50.948;3.114;2023-04-03T17:05:04;2.95;;;1.92;;
18720;SDS011;9489;50.948;3.114;2023-04-03T17:07:30;4.22;;;2.25;;
18720;SDS011;9489;50.948;3.114;2023-04-03T17:09:55;3.70;;;2.60;;
18720;SDS011;9489;50.948;3.114;2023-04-03T17:12:21;2.53;;;2.20;;